sensor_id;sensor_type;location;lat;lon;timestamp;P1;durP1;ratioP1;P2;durP2;ratioP2
68010;SDS011;54794;48.348;7.878;2024-01-30T00:02:17;2.28;;;1.42;;
68010;SDS011;54794;48.348;7.878;2024-01-30T00:04:44;1.73;;;1.00;;
68010;SDS011;54794;48.348;7.878;2024-01-30T00:07:11;2.58;;;1.30;;
68010;SDS011;54794;48.348;7.878;2024-01-30T00:09:38;2.55;;;1.23;;
68010;SDS011;54794;48.348;7.878;2024-01-30T00:12:06;2.35;;;1.48;;
68010;SDS011;54794;48.348;7.878;2024-01-30T00:14:33;2.03;;;1.13;;
68010;SDS011;54794;48.348;7.878;2024-01-30T00:17:00;1.85;;;1.10;;
68010;SDS011;54794;48.348;7.878;2024-01-30T00:19:27;2.92;;;1.20;;
68010;SDS011;54794;48.348;7.878;2024-01-30T00:21:54;1.20;;;0.80;;
68010;SDS011;54794;48.348;7.878;2024-01-30T00:24:21;2.72;;;1.20;;
68010;SDS011;54794;48.348;7.878;2024-01-30T00:26:48;2.00;;;1.10;;
68010;SDS011;54794;48.348;7.878;2024-01-30T00:29:15;2.45;;;1.10;;
68010;SDS011;54794;48.348;7.878;2024-01-30T00:31:46;2.63;;;1.30;;
68010;SDS011;54794;48.348;7.878;2024-01-30T00:34:13;1.55;;;1.05;;
68010;SDS011;54794;48.348;7.878;2024-01-30T00:36:40;1.50;;;0.93;;
68010;SDS011;54794;48.348;7.878;2024-01-30T00:39:07;2.10;;;1.17;;
68010;SDS011;54794;48.348;7.878;2024-01-30T00:41:35;2.05;;;1.02;;
68010;SDS011;54794;48.348;7.878;2024-01-30T00:44:02;1.77;;;1.30;;
68010;SDS011;54794;48.348;7.878;2024-01-30T00:46:29;2.60;;;1.30;;
68010;SDS011;54794;48.348;7.878;2024-01-30T00:48:56;2.28;;;1.20;;
68010;SDS011;54794;48.348;7.878;2024-01-30T00:51:23;3.05;;;1.40;;
68010;SDS011;54794;48.348;7.878;2024-01-30T00:53:50;1.67;;;1.17;;
68010;SDS011;54794;48.348;7.878;2024-01-30T00:56:18;2.30;;;1.23;;
68010;SDS011;54794;48.348;7.878;2024-01-30T00:58:45;2.50;;;1.20;;
68010;SDS011;54794;48.348;7.878;2024-01-30T01:01:13;2.22;;;1.10;;
68010;SDS011;54794;48.348;7.878;2024-01-30T01:03:41;1.90;;;0.90;;
68010;SDS011;54794;48.348;7.878;2024-01-30T01:06:10;2.15;;;0.90;;
68010;SDS011;54794;48.348;7.878;2024-01-30T01:08:37;1.35;;;0.80;;
68010;SDS011;54794;48.348;7.878;2024-01-30T01:11:04;2.17;;;0.95;;
68010;SDS011;54794;48.348;7.878;2024-01-30T01:13:30;1.73;;;0.90;;
68010;SDS011;54794;48.348;7.878;2024-01-30T01:15:57;2.25;;;0.90;;
68010;SDS011;54794;48.348;7.878;2024-01-30T01:18:24;2.10;;;0.90;;
68010;SDS011;54794;48.348;7.878;2024-01-30T01:20:51;1.48;;;0.90;;
68010;SDS011;54794;48.348;7.878;2024-01-30T01:23:18;1.00;;;0.77;;
68010;SDS011;54794;48.348;7.878;2024-01-30T01:25:45;1.52;;;0.88;;
68010;SDS011;54794;48.348;7.878;2024-01-30T01:28:12;1.00;;;0.65;;
68010;SDS011;54794;48.348;7.878;2024-01-30T01:30:39;2.15;;;1.02;;
68010;SDS011;54794;48.348;7.878;2024-01-30T01:33:06;1.90;;;1.05;;
68010;SDS011;54794;48.348;7.878;2024-01-30T01:35:33;1.75;;;0.93;;
68010;SDS011;54794;48.348;7.878;2024-01-30T01:38:00;1.33;;;0.88;;
68010;SDS011;54794;48.348;7.878;2024-01-30T01:40:27;2.22;;;1.10;;
68010;SDS011;54794;48.348;7.878;2024-01-30T01:42:55;4.82;;;1.20;;
68010;SDS011;54794;48.348;7.878;2024-01-30T01:45:22;1.92;;;1.00;;
68010;SDS011;54794;48.348;7.878;2024-01-30T01:47:50;1.98;;;1.02;;
68010;SDS011;54794;48.348;7.878;2024-01-30T01:50:18;1.83;;;1.00;;
68010;SDS011;54794;48.348;7.878;2024-01-30T01:52:47;1.83;;;0.90;;
68010;SDS011;54794;48.348;7.878;2024-01-30T01:57:44;0.70;;;0.57;;
68010;SDS011;54794;48.348;7.878;2024-01-30T02:00:14;1.60;;;0.70;;
68010;SDS011;54794;48.348;7.878;2024-01-30T02:02:43;0.85;;;0.60;;
68010;SDS011;54794;48.348;7.878;2024-01-30T02:05:11;2.25;;;0.98;;
68010;SDS011;54794;48.348;7.878;2024-01-30T02:07:39;1.85;;;1.00;;
68010;SDS011;54794;48.348;7.878;2024-01-30T02:10:07;1.70;;;0.88;;
68010;SDS011;54794;48.348;7.878;2024-01-30T02:12:36;1.67;;;0.90;;
68010;SDS011;54794;48.348;7.878;2024-01-30T02:15:03;1.10;;;0.70;;
68010;SDS011;54794;48.348;7.878;2024-01-30T02:17:31;1.08;;;0.63;;
68010;SDS011;54794;48.348;7.878;2024-01-30T02:19:59;1.38;;;0.73;;
68010;SDS011;54794;48.348;7.878;2024-01-30T02:22:26;1.17;;;0.68;;
68010;SDS011;54794;48.348;7.878;2024-01-30T02:24:54;1.02;;;0.60;;
68010;SDS011;54794;48.348;7.878;2024-01-30T02:27:20;1.70;;;0.90;;
68010;SDS011;54794;48.348;7.878;2024-01-30T02:29:47;0.80;;;0.60;;
68010;SDS011;54794;48.348;7.878;2024-01-30T02:32:14;1.00;;;0.75;;
68010;SDS011;54794;48.348;7.878;2024-01-30T02:34:41;1.23;;;0.68;;
68010;SDS011;54794;48.348;7.878;2024-01-30T02:37:09;1.58;;;0.70;;
68010;SDS011;54794;48.348;7.878;2024-01-30T02:39:36;1.30;;;0.70;;
68010;SDS011;54794;48.348;7.878;2024-01-30T02:42:03;1.70;;;0.60;;
68010;SDS011;54794;48.348;7.878;2024-01-30T02:44:31;1.00;;;0.60;;
68010;SDS011;54794;48.348;7.878;2024-01-30T02:46:58;1.50;;;0.77;;
68010;SDS011;54794;48.348;7.878;2024-01-30T02:49:25;1.42;;;0.77;;
68010;SDS011;54794;48.348;7.878;2024-01-30T02:51:53;1.02;;;0.73;;
68010;SDS011;54794;48.348;7.878;2024-01-30T02:54:21;1.30;;;0.63;;
68010;SDS011;54794;48.348;7.878;2024-01-30T02:56:48;2.17;;;0.80;;
68010;SDS011;54794;48.348;7.878;2024-01-30T02:59:15;1.25;;;0.80;;
68010;SDS011;54794;48.348;7.878;2024-01-30T03:01:42;2.42;;;0.80;;
68010;SDS011;54794;48.348;7.878;2024-01-30T03:04:11;1.20;;;0.70;;
68010;SDS011;54794;48.348;7.878;2024-01-30T03:06:38;1.70;;;0.82;;
68010;SDS011;54794;48.348;7.878;2024-01-30T03:09:10;1.10;;;0.77;;
68010;SDS011;54794;48.348;7.878;2024-01-30T03:11:37;1.05;;;0.60;;
68010;SDS011;54794;48.348;7.878;2024-01-30T03:14:04;1.23;;;0.77;;
68010;SDS011;54794;48.348;7.878;2024-01-30T03:16:31;1.05;;;0.70;;
68010;SDS011;54794;48.348;7.878;2024-01-30T03:18:58;1.08;;;0.70;;
68010;SDS011;54794;48.348;7.878;2024-01-30T03:21:28;1.38;;;0.88;;
68010;SDS011;54794;48.348;7.878;2024-01-30T03:23:55;1.52;;;0.80;;
68010;SDS011;54794;48.348;7.878;2024-01-30T03:26:22;0.90;;;0.65;;
68010;SDS011;54794;48.348;7.878;2024-01-30T03:28:49;0.95;;;0.70;;
68010;SDS011;54794;48.348;7.878;2024-01-30T03:31:16;1.15;;;0.75;;
68010;SDS011;54794;48.348;7.878;2024-01-30T03:33:42;1.63;;;0.60;;
68010;SDS011;54794;48.348;7.878;2024-01-30T03:36:10;0.90;;;0.60;;
68010;SDS011;54794;48.348;7.878;2024-01-30T03:38:37;0.55;;;0.45;;
68010;SDS011;54794;48.348;7.878;2024-01-30T03:41:10;0.98;;;0.47;;
68010;SDS011;54794;48.348;7.878;2024-01-30T03:43:37;1.35;;;0.73;;
68010;SDS011;54794;48.348;7.878;2024-01-30T03:46:03;0.98;;;0.63;;
68010;SDS011;54794;48.348;7.878;2024-01-30T03:48:31;0.80;;;0.50;;
68010;SDS011;54794;48.348;7.878;2024-01-30T03:50:58;1.42;;;0.70;;
68010;SDS011;54794;48.348;7.878;2024-01-30T03:53:25;0.65;;;0.50;;
68010;SDS011;54794;48.348;7.878;2024-01-30T03:55:51;1.20;;;0.55;;
68010;SDS011;54794;48.348;7.878;2024-01-30T03:58:18;0.90;;;0.70;;
68010;SDS011;54794;48.348;7.878;2024-01-30T04:00:45;0.82;;;0.50;;
68010;SDS011;54794;48.348;7.878;2024-01-30T04:03:14;1.02;;;0.70;;
68010;SDS011;54794;48.348;7.878;2024-01-30T04:05:44;0.80;;;0.60;;
68010;SDS011;54794;48.348;7.878;2024-01-30T04:08:11;1.52;;;0.55;;
68010;SDS011;54794;48.348;7.878;2024-01-30T04:10:38;1.00;;;0.60;;
68010;SDS011;54794;48.348;7.878;2024-01-30T04:13:06;0.95;;;0.63;;
68010;SDS011;54794;48.348;7.878;2024-01-30T04:15:37;0.93;;;0.60;;
68010;SDS011;54794;48.348;7.878;2024-01-30T04:18:04;0.98;;;0.70;;
68010;SDS011;54794;48.348;7.878;2024-01-30T04:20:32;0.95;;;0.60;;
68010;SDS011;54794;48.348;7.878;2024-01-30T04:22:58;0.98;;;0.70;;
68010;SDS011;54794;48.348;7.878;2024-01-30T04:25:25;0.70;;;0.50;;
68010;SDS011;54794;48.348;7.878;2024-01-30T04:27:52;1.10;;;0.77;;
68010;SDS011;54794;48.348;7.878;2024-01-30T04:30:19;0.75;;;0.52;;
68010;SDS011;54794;48.348;7.878;2024-01-30T04:32:46;1.00;;;0.70;;
68010;SDS011;54794;48.348;7.878;2024-01-30T04:35:13;1.15;;;0.73;;
68010;SDS011;54794;48.348;7.878;2024-01-30T04:37:40;1.13;;;0.80;;
68010;SDS011;54794;48.348;7.878;2024-01-30T04:40:07;0.88;;;0.55;;
68010;SDS011;54794;48.348;7.878;2024-01-30T04:42:37;1.90;;;0.65;;
68010;SDS011;54794;48.348;7.878;2024-01-30T04:45:04;1.05;;;0.70;;
68010;SDS011;54794;48.348;7.878;2024-01-30T04:47:32;1.00;;;0.65;;
68010;SDS011;54794;48.348;7.878;2024-01-30T04:49:59;1.40;;;0.77;;
68010;SDS011;54794;48.348;7.878;2024-01-30T04:52:27;0.80;;;0.50;;
68010;SDS011;54794;48.348;7.878;2024-01-30T04:54:54;1.73;;;0.68;;
68010;SDS011;54794;48.348;7.878;2024-01-30T04:57:21;1.35;;;0.90;;
68010;SDS011;54794;48.348;7.878;2024-01-30T04:59:48;2.25;;;0.85;;
68010;SDS011;54794;48.348;7.878;2024-01-30T05:02:15;1.17;;;0.70;;
68010;SDS011;54794;48.348;7.878;2024-01-30T05:04:42;1.05;;;0.75;;
68010;SDS011;54794;48.348;7.878;2024-01-30T05:07:08;1.60;;;0.65;;
68010;SDS011;54794;48.348;7.878;2024-01-30T05:09:35;1.10;;;0.57;;
68010;SDS011;54794;48.348;7.878;2024-01-30T05:12:02;1.23;;;0.70;;
68010;SDS011;54794;48.348;7.878;2024-01-30T05:14:29;1.48;;;0.70;;
68010;SDS011;54794;48.348;7.878;2024-01-30T05:16:56;1.33;;;0.70;;
68010;SDS011;54794;48.348;7.878;2024-01-30T05:19:23;1.73;;;0.77;;
68010;SDS011;54794;48.348;7.878;2024-01-30T05:21:50;1.00;;;0.65;;
68010;SDS011;54794;48.348;7.878;2024-01-30T05:24:17;1.42;;;0.90;;
68010;SDS011;54794;48.348;7.878;2024-01-30T05:26:46;1.45;;;0.80;;
68010;SDS011;54794;48.348;7.878;2024-01-30T05:29:14;1.58;;;0.70;;
68010;SDS011;54794;48.348;7.878;2024-01-30T05:31:41;1.50;;;0.98;;
68010;SDS011;54794;48.348;7.878;2024-01-30T05:34:08;1.48;;;0.70;;
68010;SDS011;54794;48.348;7.878;2024-01-30T05:36:35;1.48;;;0.80;;
68010;SDS011;54794;48.348;7.878;2024-01-30T05:39:02;1.33;;;0.63;;
68010;SDS011;54794;48.348;7.878;2024-01-30T05:41:32;1.15;;;0.60;;
68010;SDS011;54794;48.348;7.878;2024-01-30T05:43:58;1.70;;;1.00;;
68010;SDS011;54794;48.348;7.878;2024-01-30T05:46:25;1.70;;;0.80;;
68010;SDS011;54794;48.348;7.878;2024-01-30T05:48:52;1.67;;;0.95;;
68010;SDS011;54794;48.348;7.878;2024-01-30T05:51:19;2.00;;;1.10;;
68010;SDS011;54794;48.348;7.878;2024-01-30T05:53:46;2.88;;;1.20;;
68010;SDS011;54794;48.348;7.878;2024-01-30T05:56:13;1.40;;;0.80;;
68010;SDS011;54794;48.348;7.878;2024-01-30T05:58:40;2.08;;;1.00;;
68010;SDS011;54794;48.348;7.878;2024-01-30T06:01:07;2.25;;;1.13;;
68010;SDS011;54794;48.348;7.878;2024-01-30T06:03:35;2.33;;;1.05;;
68010;SDS011;54794;48.348;7.878;2024-01-30T06:06:02;1.83;;;1.10;;
68010;SDS011;54794;48.348;7.878;2024-01-30T06:08:29;1.77;;;1.10;;
68010;SDS011;54794;48.348;7.878;2024-01-30T06:10:59;1.33;;;0.95;;
68010;SDS011;54794;48.348;7.878;2024-01-30T06:13:30;1.33;;;0.90;;
68010;SDS011;54794;48.348;7.878;2024-01-30T06:15:58;3.00;;;1.20;;
68010;SDS011;54794;48.348;7.878;2024-01-30T06:18:25;0.98;;;0.68;;
68010;SDS011;54794;48.348;7.878;2024-01-30T06:20:53;2.80;;;1.08;;
68010;SDS011;54794;48.348;7.878;2024-01-30T06:23:20;2.47;;;1.35;;
68010;SDS011;54794;48.348;7.878;2024-01-30T06:25:46;1.73;;;1.20;;
68010;SDS011;54794;48.348;7.878;2024-01-30T06:28:13;1.70;;;0.73;;
68010;SDS011;54794;48.348;7.878;2024-01-30T06:30:40;1.45;;;0.82;;
68010;SDS011;54794;48.348;7.878;2024-01-30T06:33:07;3.63;;;1.05;;
68010;SDS011;54794;48.348;7.878;2024-01-30T06:35:34;1.98;;;0.95;;
68010;SDS011;54794;48.348;7.878;2024-01-30T06:38:02;2.05;;;1.00;;
68010;SDS011;54794;48.348;7.878;2024-01-30T06:40:29;1.60;;;0.95;;
68010;SDS011;54794;48.348;7.878;2024-01-30T06:42:56;2.80;;;1.20;;
68010;SDS011;54794;48.348;7.878;2024-01-30T06:45:23;1.40;;;0.98;;
68010;SDS011;54794;48.348;7.878;2024-01-30T06:47:52;1.60;;;0.82;;
68010;SDS011;54794;48.348;7.878;2024-01-30T06:50:19;1.88;;;0.90;;
68010;SDS011;54794;48.348;7.878;2024-01-30T06:53:21;1.98;;;0.70;;
68010;SDS011;54794;48.348;7.878;2024-01-30T06:55:48;3.45;;;1.10;;
68010;SDS011;54794;48.348;7.878;2024-01-30T06:58:15;2.20;;;1.08;;
68010;SDS011;54794;48.348;7.878;2024-01-30T07:00:44;1.85;;;1.05;;
68010;SDS011;54794;48.348;7.878;2024-01-30T07:03:14;1.80;;;0.90;;
68010;SDS011;54794;48.348;7.878;2024-01-30T07:05:41;1.65;;;1.02;;
68010;SDS011;54794;48.348;7.878;2024-01-30T07:09:20;1.75;;;1.00;;
68010;SDS011;54794;48.348;7.878;2024-01-30T07:11:53;2.33;;;1.10;;
68010;SDS011;54794;48.348;7.878;2024-01-30T07:14:24;1.73;;;1.10;;
68010;SDS011;54794;48.348;7.878;2024-01-30T07:16:53;1.60;;;1.08;;
68010;SDS011;54794;48.348;7.878;2024-01-30T07:19:24;1.77;;;1.05;;
68010;SDS011;54794;48.348;7.878;2024-01-30T07:21:51;2.60;;;1.30;;
68010;SDS011;54794;48.348;7.878;2024-01-30T07:24:18;1.83;;;1.08;;
68010;SDS011;54794;48.348;7.878;2024-01-30T07:26:45;1.45;;;0.90;;
68010;SDS011;54794;48.348;7.878;2024-01-30T07:29:12;1.92;;;1.08;;
68010;SDS011;54794;48.348;7.878;2024-01-30T07:31:39;1.55;;;1.00;;
68010;SDS011;54794;48.348;7.878;2024-01-30T07:36:33;1.65;;;0.80;;
68010;SDS011;54794;48.348;7.878;2024-01-30T07:39:00;1.58;;;0.98;;
68010;SDS011;54794;48.348;7.878;2024-01-30T07:41:27;2.15;;;1.10;;
68010;SDS011;54794;48.348;7.878;2024-01-30T07:43:53;1.60;;;0.88;;
68010;SDS011;54794;48.348;7.878;2024-01-30T07:46:20;1.80;;;1.07;;
68010;SDS011;54794;48.348;7.878;2024-01-30T07:48:47;4.38;;;1.27;;
68010;SDS011;54794;48.348;7.878;2024-01-30T07:51:17;2.05;;;1.20;;
68010;SDS011;54794;48.348;7.878;2024-01-30T07:53:43;1.90;;;1.00;;
68010;SDS011;54794;48.348;7.878;2024-01-30T07:56:11;1.92;;;1.02;;
68010;SDS011;54794;48.348;7.878;2024-01-30T07:58:38;3.30;;;1.25;;
68010;SDS011;54794;48.348;7.878;2024-01-30T08:01:04;2.15;;;1.08;;
68010;SDS011;54794;48.348;7.878;2024-01-30T08:03:31;2.13;;;1.02;;
68010;SDS011;54794;48.348;7.878;2024-01-30T08:05:58;2.28;;;1.17;;
68010;SDS011;54794;48.348;7.878;2024-01-30T08:08:25;1.77;;;1.10;;
68010;SDS011;54794;48.348;7.878;2024-01-30T08:10:57;2.53;;;1.00;;
68010;SDS011;54794;48.348;7.878;2024-01-30T08:13:24;1.58;;;1.17;;
68010;SDS011;54794;48.348;7.878;2024-01-30T08:15:51;1.50;;;1.05;;
68010;SDS011;54794;48.348;7.878;2024-01-30T08:18:18;4.88;;;1.30;;
68010;SDS011;54794;48.348;7.878;2024-01-30T08:20:45;3.28;;;1.20;;
68010;SDS011;54794;48.348;7.878;2024-01-30T08:23:12;3.75;;;1.10;;
68010;SDS011;54794;48.348;7.878;2024-01-30T08:25:39;1.98;;;1.05;;
68010;SDS011;54794;48.348;7.878;2024-01-30T08:28:06;2.10;;;1.10;;
68010;SDS011;54794;48.348;7.878;2024-01-30T08:30:35;1.48;;;0.93;;
68010;SDS011;54794;48.348;7.878;2024-01-30T08:33:06;2.63;;;1.00;;
68010;SDS011;54794;48.348;7.878;2024-01-30T08:35:35;1.83;;;1.00;;
68010;SDS011;54794;48.348;7.878;2024-01-30T08:38:02;2.03;;;1.05;;
68010;SDS011;54794;48.348;7.878;2024-01-30T08:40:29;1.55;;;1.02;;
68010;SDS011;54794;48.348;7.878;2024-01-30T08:42:59;1.30;;;0.90;;
68010;SDS011;54794;48.348;7.878;2024-01-30T08:45:26;1.58;;;0.70;;
68010;SDS011;54794;48.348;7.878;2024-01-30T08:47:53;2.08;;;1.00;;
68010;SDS011;54794;48.348;7.878;2024-01-30T08:50:24;2.00;;;1.02;;
68010;SDS011;54794;48.348;7.878;2024-01-30T08:52:51;1.63;;;1.05;;
68010;SDS011;54794;48.348;7.878;2024-01-30T08:55:19;1.45;;;1.02;;
68010;SDS011;54794;48.348;7.878;2024-01-30T08:57:47;1.55;;;1.05;;
68010;SDS011;54794;48.348;7.878;2024-01-30T09:00:17;2.60;;;1.27;;
68010;SDS011;54794;48.348;7.878;2024-01-30T09:02:47;2.78;;;1.30;;
68010;SDS011;54794;48.348;7.878;2024-01-30T09:05:18;2.50;;;1.10;;
68010;SDS011;54794;48.348;7.878;2024-01-30T09:07:45;1.58;;;1.05;;
68010;SDS011;54794;48.348;7.878;2024-01-30T09:10:13;1.98;;;1.17;;
68010;SDS011;54794;48.348;7.878;2024-01-30T09:12:42;2.35;;;1.08;;
68010;SDS011;54794;48.348;7.878;2024-01-30T09:15:09;1.63;;;1.13;;
68010;SDS011;54794;48.348;7.878;2024-01-30T09:17:36;2.45;;;1.05;;
68010;SDS011;54794;48.348;7.878;2024-01-30T09:20:03;2.22;;;1.05;;
68010;SDS011;54794;48.348;7.878;2024-01-30T09:22:32;1.77;;;1.02;;
68010;SDS011;54794;48.348;7.878;2024-01-30T09:25:01;1.08;;;0.85;;
68010;SDS011;54794;48.348;7.878;2024-01-30T09:27:32;3.10;;;1.10;;
68010;SDS011;54794;48.348;7.878;2024-01-30T09:30:00;1.85;;;1.02;;
68010;SDS011;54794;48.348;7.878;2024-01-30T09:32:30;1.77;;;1.25;;
68010;SDS011;54794;48.348;7.878;2024-01-30T09:34:57;1.85;;;1.10;;
68010;SDS011;54794;48.348;7.878;2024-01-30T09:37:27;4.07;;;1.08;;
68010;SDS011;54794;48.348;7.878;2024-01-30T09:39:54;3.67;;;1.15;;
68010;SDS011;54794;48.348;7.878;2024-01-30T09:42:39;2.53;;;1.10;;
68010;SDS011;54794;48.348;7.878;2024-01-30T09:45:10;2.05;;;1.00;;
68010;SDS011;54794;48.348;7.878;2024-01-30T09:47:41;2.85;;;1.17;;
68010;SDS011;54794;48.348;7.878;2024-01-30T09:50:13;1.65;;;1.02;;
68010;SDS011;54794;48.348;7.878;2024-01-30T09:52:46;1.55;;;0.95;;
68010;SDS011;54794;48.348;7.878;2024-01-30T09:55:14;2.42;;;1.10;;
68010;SDS011;54794;48.348;7.878;2024-01-30T09:57:45;1.65;;;1.00;;
68010;SDS011;54794;48.348;7.878;2024-01-30T10:00:13;1.90;;;1.10;;
68010;SDS011;54794;48.348;7.878;2024-01-30T10:02:42;2.45;;;1.20;;
68010;SDS011;54794;48.348;7.878;2024-01-30T10:05:09;2.35;;;1.10;;
68010;SDS011;54794;48.348;7.878;2024-01-30T10:07:49;2.13;;;1.20;;
68010;SDS011;54794;48.348;7.878;2024-01-30T10:10:23;2.05;;;1.17;;
68010;SDS011;54794;48.348;7.878;2024-01-30T10:12:51;1.55;;;1.02;;
68010;SDS011;54794;48.348;7.878;2024-01-30T10:15:18;1.65;;;1.00;;
68010;SDS011;54794;48.348;7.878;2024-01-30T10:17:51;1.63;;;0.90;;
68010;SDS011;54794;48.348;7.878;2024-01-30T10:20:22;2.22;;;0.90;;
68010;SDS011;54794;48.348;7.878;2024-01-30T10:22:59;1.37;;;0.90;;
68010;SDS011;54794;48.348;7.878;2024-01-30T10:25:38;1.42;;;0.90;;
68010;SDS011;54794;48.348;7.878;2024-01-30T10:28:13;2.88;;;0.88;;
68010;SDS011;54794;48.348;7.878;2024-01-30T10:31:09;2.97;;;1.45;;
68010;SDS011;54794;48.348;7.878;2024-01-30T10:34:06;1.88;;;1.10;;
68010;SDS011;54794;48.348;7.878;2024-01-30T10:36:46;1.25;;;1.02;;
68010;SDS011;54794;48.348;7.878;2024-01-30T10:39:21;1.77;;;1.10;;
68010;SDS011;54794;48.348;7.878;2024-01-30T10:42:28;1.80;;;1.20;;
68010;SDS011;54794;48.348;7.878;2024-01-30T10:45:40;1.70;;;1.10;;
68010;SDS011;54794;48.348;7.878;2024-01-30T10:49:19;2.22;;;1.20;;
68010;SDS011;54794;48.348;7.878;2024-01-30T10:52:27;2.85;;;1.42;;
68010;SDS011;54794;48.348;7.878;2024-01-30T10:55:07;2.20;;;1.27;;
68010;SDS011;54794;48.348;7.878;2024-01-30T10:58:01;1.42;;;1.10;;
68010;SDS011;54794;48.348;7.878;2024-01-30T11:00:42;1.83;;;1.17;;
68010;SDS011;54794;48.348;7.878;2024-01-30T11:03:34;1.42;;;1.00;;
68010;SDS011;54794;48.348;7.878;2024-01-30T11:06:45;1.95;;;1.20;;
68010;SDS011;54794;48.348;7.878;2024-01-30T11:12:33;1.88;;;1.08;;
68010;SDS011;54794;48.348;7.878;2024-01-30T11:15:08;1.90;;;1.40;;
68010;SDS011;54794;48.348;7.878;2024-01-30T11:17:51;1.98;;;1.33;;
68010;SDS011;54794;48.348;7.878;2024-01-30T11:20:22;1.65;;;1.00;;
68010;SDS011;54794;48.348;7.878;2024-01-30T11:23:02;2.25;;;1.20;;
68010;SDS011;54794;48.348;7.878;2024-01-30T11:25:44;2.13;;;1.30;;
68010;SDS011;54794;48.348;7.878;2024-01-30T11:28:44;1.42;;;0.90;;
68010;SDS011;54794;48.348;7.878;2024-01-30T11:41:09;1.88;;;1.23;;
68010;SDS011;54794;48.348;7.878;2024-01-30T11:44:28;1.40;;;1.00;;
68010;SDS011;54794;48.348;7.878;2024-01-30T11:46:59;1.65;;;1.00;;
68010;SDS011;54794;48.348;7.878;2024-01-30T11:55:28;2.10;;;1.00;;
68010;SDS011;54794;48.348;7.878;2024-01-30T11:59:20;1.42;;;0.75;;
68010;SDS011;54794;48.348;7.878;2024-01-30T12:14:56;1.88;;;1.00;;
68010;SDS011;54794;48.348;7.878;2024-01-30T12:18:47;0.95;;;0.70;;
68010;SDS011;54794;48.348;7.878;2024-01-30T12:21:18;1.40;;;0.95;;
68010;SDS011;54794;48.348;7.878;2024-01-30T12:23:52;1.30;;;0.88;;
68010;SDS011;54794;48.348;7.878;2024-01-30T12:26:33;2.20;;;0.95;;
68010;SDS011;54794;48.348;7.878;2024-01-30T12:29:43;0.90;;;0.80;;
68010;SDS011;54794;48.348;7.878;2024-01-30T12:32:18;1.60;;;1.07;;
68010;SDS011;54794;48.348;7.878;2024-01-30T12:35:22;2.00;;;1.20;;
68010;SDS011;54794;48.348;7.878;2024-01-30T12:38:07;1.63;;;1.00;;
68010;SDS011;54794;48.348;7.878;2024-01-30T12:44:00;1.92;;;1.02;;
68010;SDS011;54794;48.348;7.878;2024-01-30T12:46:28;1.80;;;1.08;;
68010;SDS011;54794;48.348;7.878;2024-01-30T12:49:36;3.33;;;1.00;;
68010;SDS011;54794;48.348;7.878;2024-01-30T12:52:42;2.03;;;1.15;;
68010;SDS011;54794;48.348;7.878;2024-01-30T12:55:28;3.15;;;1.25;;
68010;SDS011;54794;48.348;7.878;2024-01-30T12:58:33;1.88;;;1.05;;
68010;SDS011;54794;48.348;7.878;2024-01-30T13:01:54;2.42;;;1.00;;
68010;SDS011;54794;48.348;7.878;2024-01-30T13:05:46;2.78;;;1.17;;
68010;SDS011;54794;48.348;7.878;2024-01-30T13:08:54;2.22;;;0.90;;
68010;SDS011;54794;48.348;7.878;2024-01-30T13:12:14;1.88;;;1.00;;
68010;SDS011;54794;48.348;7.878;2024-01-30T13:14:56;2.03;;;1.48;;
68010;SDS011;54794;48.348;7.878;2024-01-30T13:17:59;3.13;;;1.30;;
68010;SDS011;54794;48.348;7.878;2024-01-30T13:21:11;1.88;;;1.10;;
68010;SDS011;54794;48.348;7.878;2024-01-30T13:23:44;1.50;;;1.10;;
68010;SDS011;54794;48.348;7.878;2024-01-30T13:26:50;1.67;;;1.15;;
68010;SDS011;54794;48.348;7.878;2024-01-30T13:29:59;1.65;;;0.88;;
68010;SDS011;54794;48.348;7.878;2024-01-30T13:33:14;2.08;;;1.20;;
68010;SDS011;54794;48.348;7.878;2024-01-30T13:36:24;1.42;;;1.10;;
68010;SDS011;54794;48.348;7.878;2024-01-30T13:39:55;2.05;;;1.20;;
68010;SDS011;54794;48.348;7.878;2024-01-30T13:43:21;2.00;;;1.25;;
68010;SDS011;54794;48.348;7.878;2024-01-30T13:46:36;1.60;;;1.20;;
68010;SDS011;54794;48.348;7.878;2024-01-30T13:49:50;2.58;;;1.60;;
68010;SDS011;54794;48.348;7.878;2024-01-30T13:55:55;2.72;;;1.02;;
68010;SDS011;54794;48.348;7.878;2024-01-30T14:02:54;1.80;;;1.10;;
68010;SDS011;54794;48.348;7.878;2024-01-30T14:05:55;1.40;;;0.80;;
68010;SDS011;54794;48.348;7.878;2024-01-30T14:08:25;1.58;;;0.95;;
68010;SDS011;54794;48.348;7.878;2024-01-30T14:11:34;1.90;;;1.00;;
68010;SDS011;54794;48.348;7.878;2024-01-30T14:15:26;1.98;;;1.08;;
68010;SDS011;54794;48.348;7.878;2024-01-30T14:18:35;1.40;;;0.90;;
68010;SDS011;54794;48.348;7.878;2024-01-30T14:21:07;2.08;;;0.93;;
68010;SDS011;54794;48.348;7.878;2024-01-30T14:24:15;1.88;;;0.98;;
68010;SDS011;54794;48.348;7.878;2024-01-30T14:26:42;4.80;;;1.20;;
68010;SDS011;54794;48.348;7.878;2024-01-30T14:29:11;1.52;;;1.00;;
68010;SDS011;54794;48.348;7.878;2024-01-30T14:31:45;1.83;;;1.05;;
68010;SDS011;54794;48.348;7.878;2024-01-30T14:34:21;2.20;;;1.10;;
68010;SDS011;54794;48.348;7.878;2024-01-30T14:36:48;1.45;;;0.90;;
68010;SDS011;54794;48.348;7.878;2024-01-30T14:39:15;2.20;;;1.02;;
68010;SDS011;54794;48.348;7.878;2024-01-30T14:41:42;1.92;;;1.00;;
68010;SDS011;54794;48.348;7.878;2024-01-30T14:44:10;1.67;;;1.10;;
68010;SDS011;54794;48.348;7.878;2024-01-30T14:46:40;1.65;;;1.02;;
68010;SDS011;54794;48.348;7.878;2024-01-30T14:49:10;1.60;;;0.93;;
68010;SDS011;54794;48.348;7.878;2024-01-30T14:51:42;2.25;;;1.10;;
68010;SDS011;54794;48.348;7.878;2024-01-30T14:54:09;2.50;;;1.40;;
68010;SDS011;54794;48.348;7.878;2024-01-30T14:56:37;2.95;;;1.20;;
68010;SDS011;54794;48.348;7.878;2024-01-30T14:59:10;2.05;;;1.13;;
68010;SDS011;54794;48.348;7.878;2024-01-30T15:01:37;1.98;;;1.00;;
68010;SDS011;54794;48.348;7.878;2024-01-30T15:04:09;2.10;;;1.08;;
68010;SDS011;54794;48.348;7.878;2024-01-30T15:06:37;1.83;;;0.98;;
68010;SDS011;54794;48.348;7.878;2024-01-30T15:09:04;1.70;;;0.82;;
68010;SDS011;54794;48.348;7.878;2024-01-30T15:11:31;2.58;;;1.13;;
68010;SDS011;54794;48.348;7.878;2024-01-30T15:14:01;2.58;;;0.93;;
68010;SDS011;54794;48.348;7.878;2024-01-30T15:16:28;1.95;;;0.95;;
68010;SDS011;54794;48.348;7.878;2024-01-30T15:18:56;3.17;;;1.00;;
68010;SDS011;54794;48.348;7.878;2024-01-30T15:21:25;2.00;;;1.00;;
68010;SDS011;54794;48.348;7.878;2024-01-30T15:23:52;2.28;;;1.15;;
68010;SDS011;54794;48.348;7.878;2024-01-30T15:26:19;2.42;;;1.20;;
68010;SDS011;54794;48.348;7.878;2024-01-30T15:28:46;1.27;;;0.90;;
68010;SDS011;54794;48.348;7.878;2024-01-30T15:31:13;2.08;;;1.10;;
68010;SDS011;54794;48.348;7.878;2024-01-30T15:33:40;3.03;;;1.08;;
68010;SDS011;54794;48.348;7.878;2024-01-30T15:36:08;1.77;;;1.02;;
68010;SDS011;54794;48.348;7.878;2024-01-30T15:42:20;2.75;;;1.50;;
68010;SDS011;54794;48.348;7.878;2024-01-30T15:44:50;2.55;;;1.52;;
68010;SDS011;54794;48.348;7.878;2024-01-30T15:47:16;2.55;;;1.60;;
68010;SDS011;54794;48.348;7.878;2024-01-30T15:49:43;3.63;;;1.40;;
68010;SDS011;54794;48.348;7.878;2024-01-30T15:52:10;2.28;;;1.48;;
68010;SDS011;54794;48.348;7.878;2024-01-30T15:54:59;3.88;;;1.70;;
68010;SDS011;54794;48.348;7.878;2024-01-30T16:00:23;2.22;;;1.40;;
68010;SDS011;54794;48.348;7.878;2024-01-30T16:03:33;2.13;;;1.30;;
68010;SDS011;54794;48.348;7.878;2024-01-30T16:07:09;1.63;;;1.05;;
68010;SDS011;54794;48.348;7.878;2024-01-30T16:09:56;2.85;;;1.13;;
68010;SDS011;54794;48.348;7.878;2024-01-30T16:12:23;1.75;;;1.13;;
68010;SDS011;54794;48.348;7.878;2024-01-30T16:14:49;2.55;;;1.40;;
68010;SDS011;54794;48.348;7.878;2024-01-30T16:17:19;2.47;;;1.30;;
68010;SDS011;54794;48.348;7.878;2024-01-30T16:21:27;1.77;;;1.02;;
68010;SDS011;54794;48.348;7.878;2024-01-30T16:25:06;1.58;;;1.15;;
68010;SDS011;54794;48.348;7.878;2024-01-30T16:36:22;5.78;;;1.65;;